createdAt,value
2023-01-08T00:00:52.912Z,21.02
2023-01-08T00:03:23.685Z,19.70
2023-01-08T00:05:53.384Z,19.77
2023-01-08T00:08:23.619Z,20.55
2023-01-08T00:10:56.519Z,20.17
2023-01-08T00:13:26.319Z,18.55
2023-01-08T00:15:56.527Z,19.58
2023-01-08T00:18:27.347Z,19.00
2023-01-08T00:20:56.521Z,18.73
2023-01-08T00:23:26.001Z,20.70
2023-01-08T00:25:55.211Z,21.10
2023-01-08T00:28:24.665Z,21.77
2023-01-08T00:30:54.524Z,22.40
2023-01-08T00:33:23.917Z,20.30
2023-01-08T00:35:54.831Z,22.02
2023-01-08T00:38:27.772Z,21.25
2023-01-08T00:40:57.069Z,22.30
2023-01-08T00:43:26.206Z,23.13
2023-01-08T00:45:55.517Z,19.52
2023-01-08T00:48:25.885Z,19.98
2023-01-08T00:50:56.961Z,19.60
2023-01-08T00:53:26.175Z,19.90
2023-01-08T00:56:02.161Z,18.80
2023-01-08T00:58:31.949Z,17.85
2023-01-08T01:01:01.556Z,19.67
2023-01-08T01:03:33.296Z,18.60
2023-01-08T01:06:04.856Z,17.10
2023-01-08T01:08:34.491Z,15.98
2023-01-08T01:11:09.211Z,18.60
2023-01-08T01:13:38.351Z,16.65
2023-01-08T01:16:08.392Z,17.52
2023-01-08T01:18:37.848Z,17.23
2023-01-08T01:21:13.666Z,15.13
2023-01-08T01:23:42.830Z,16.70
2023-01-08T01:26:18.538Z,15.05
2023-01-08T01:28:49.888Z,16.17
2023-01-08T01:31:20.619Z,16.02
2023-01-08T01:33:51.121Z,16.70
2023-01-08T01:36:24.219Z,14.88
2023-01-08T01:38:55.692Z,16.70
2023-01-08T01:41:29.447Z,14.05
2023-01-08T01:44:00.446Z,13.50
2023-01-08T01:46:38.632Z,19.27
2023-01-08T01:49:12.031Z,16.67
2023-01-08T01:51:50.093Z,16.52
2023-01-08T01:54:19.633Z,13.65
2023-01-08T01:56:49.111Z,15.95
2023-01-08T01:59:20.261Z,16.65
2023-01-08T02:01:50.828Z,16.80
2023-01-08T02:04:19.950Z,16.77
2023-01-08T02:07:00.779Z,17.45
2023-01-08T02:09:43.263Z,13.77
2023-01-08T02:12:19.483Z,14.27
2023-01-08T02:15:01.551Z,17.00
2023-01-08T02:17:38.659Z,14.73
2023-01-08T02:23:18.061Z,16.02
2023-01-08T02:26:24.853Z,15.18
2023-01-08T02:29:00.041Z,18.23
2023-01-08T02:31:32.575Z,15.27
2023-01-08T02:34:02.118Z,15.40
2023-01-08T02:36:39.260Z,13.68
2023-01-08T02:42:15.032Z,14.23
2023-01-08T02:44:56.879Z,13.30
2023-01-08T02:47:34.405Z,13.50
2023-01-08T02:50:15.061Z,12.52
2023-01-08T02:52:54.039Z,13.68
2023-01-08T02:55:25.296Z,16.50
2023-01-08T02:57:56.354Z,15.15
2023-01-08T03:00:25.898Z,14.38
2023-01-08T03:03:08.596Z,14.68
2023-01-08T03:05:40.734Z,15.60
2023-01-08T03:08:11.219Z,15.98
2023-01-08T03:10:44.246Z,15.13
2023-01-08T03:13:21.586Z,16.45
2023-01-08T03:15:56.386Z,15.45
2023-01-08T03:18:34.200Z,14.82
2023-01-08T03:21:05.006Z,15.05
2023-01-08T03:23:37.313Z,14.93
2023-01-08T03:26:08.087Z,14.27
2023-01-08T03:28:45.387Z,14.02
2023-01-08T03:31:17.207Z,15.18
2023-01-08T03:33:48.490Z,13.27
2023-01-08T03:36:23.247Z,13.65
2023-01-08T03:38:59.919Z,14.57
2023-01-08T03:41:33.722Z,13.82
2023-01-08T03:44:04.642Z,14.80
2023-01-08T03:46:48.525Z,14.70
2023-01-08T03:49:18.899Z,14.05
2023-01-08T03:51:49.069Z,15.20
2023-01-08T03:54:21.626Z,14.65
2023-01-08T03:56:51.098Z,14.95
2023-01-08T03:59:21.532Z,14.45
2023-01-08T04:01:50.800Z,16.25
2023-01-08T04:04:20.153Z,15.90
2023-01-08T04:06:49.525Z,15.80
2023-01-08T04:09:18.705Z,15.18
2023-01-08T04:11:47.845Z,17.23
2023-01-08T04:14:16.973Z,19.50
2023-01-08T04:16:50.240Z,15.40
2023-01-08T04:19:19.446Z,14.57
2023-01-08T04:21:50.966Z,14.13
2023-01-08T04:24:20.947Z,16.38
2023-01-08T04:26:50.282Z,17.48
2023-01-08T04:29:19.403Z,16.58
2023-01-08T04:31:50.011Z,14.85
2023-01-08T04:34:19.103Z,15.43
2023-01-08T04:36:48.433Z,13.77
2023-01-08T04:39:17.813Z,16.08
2023-01-08T04:41:46.967Z,16.17
2023-01-08T04:44:16.047Z,15.70
2023-01-08T04:46:45.274Z,15.60
2023-01-08T04:49:16.231Z,17.45
2023-01-08T04:51:45.385Z,15.40
2023-01-08T04:54:14.632Z,13.25
2023-01-08T04:56:43.807Z,14.25
2023-01-08T04:59:13.092Z,14.65
2023-01-08T05:01:42.373Z,15.95
2023-01-08T05:04:12.832Z,13.00
2023-01-08T05:06:43.412Z,16.13
2023-01-08T05:09:12.985Z,12.13
2023-01-08T05:11:43.319Z,14.75
2023-01-08T05:14:12.703Z,12.13
2023-01-08T05:16:41.926Z,15.38
2023-01-08T05:19:11.050Z,14.40
2023-01-08T05:21:40.273Z,16.13
2023-01-08T05:24:11.042Z,11.73
2023-01-08T05:26:40.223Z,12.02
2023-01-08T05:29:09.389Z,13.00
2023-01-08T05:31:38.600Z,12.57
2023-01-08T05:34:07.670Z,11.15
2023-01-08T05:36:36.764Z,11.65
2023-01-08T05:39:05.956Z,13.15
2023-01-08T05:41:36.491Z,11.38
2023-01-08T05:44:06.046Z,11.82
2023-01-08T05:46:35.290Z,11.52
2023-01-08T05:49:04.464Z,11.32
2023-01-08T05:51:33.659Z,14.82
2023-01-08T05:54:02.823Z,11.00
2023-01-08T05:56:32.381Z,17.63
2023-01-08T05:59:03.062Z,16.75
2023-01-08T06:01:34.599Z,20.27
2023-01-08T06:04:04.188Z,14.60
2023-01-08T06:06:33.535Z,12.82
2023-01-08T06:09:02.662Z,12.15
2023-01-08T06:11:31.860Z,14.98
2023-01-08T06:14:02.424Z,14.38
2023-01-08T06:16:31.508Z,12.95
2023-01-08T06:19:00.655Z,12.80
2023-01-08T06:21:29.789Z,13.75
2023-01-08T06:23:58.885Z,15.30
2023-01-08T06:26:28.057Z,17.20
2023-01-08T06:28:57.307Z,16.30
2023-01-08T06:31:28.040Z,17.60
2023-01-08T06:33:57.183Z,13.13
2023-01-08T06:36:26.380Z,12.57
2023-01-08T06:38:55.904Z,14.88
2023-01-08T06:41:25.152Z,14.82
2023-01-08T06:43:54.420Z,12.13
2023-01-08T06:46:23.739Z,15.30
2023-01-08T06:48:54.268Z,13.20
2023-01-08T06:51:23.407Z,14.60
2023-01-08T06:53:53.328Z,16.23
2023-01-08T06:56:22.386Z,15.95
2023-01-08T06:58:51.566Z,13.65
2023-01-08T07:01:25.729Z,14.88
2023-01-08T07:03:57.453Z,14.15
2023-01-08T07:06:26.637Z,15.07
2023-01-08T07:08:55.974Z,12.43
2023-01-08T07:11:25.433Z,12.70
2023-01-08T07:13:56.625Z,13.27
2023-01-08T07:16:25.886Z,13.93
2023-01-08T07:18:56.517Z,12.30
2023-01-08T07:21:25.665Z,14.80
2023-01-08T07:23:54.897Z,14.15
2023-01-08T07:26:24.137Z,15.15
2023-01-08T07:28:53.695Z,12.55
2023-01-08T07:31:23.009Z,11.70
2023-01-08T07:33:52.296Z,11.63
2023-01-08T07:36:24.381Z,12.10
2023-01-08T07:38:53.512Z,11.63
2023-01-08T07:41:22.740Z,12.20
2023-01-08T07:43:55.233Z,12.13
2023-01-08T07:46:24.463Z,12.25
2023-01-08T07:48:53.692Z,11.68
2023-01-08T07:51:24.580Z,11.65
2023-01-08T07:53:56.239Z,13.57
2023-01-08T07:56:26.210Z,11.30
2023-01-08T07:58:55.362Z,11.75
2023-01-08T08:01:26.299Z,11.98
2023-01-08T08:03:55.469Z,12.15
2023-01-08T08:06:26.057Z,11.45
2023-01-08T08:08:58.261Z,11.80
2023-01-08T08:11:27.477Z,12.48
2023-01-08T08:13:56.822Z,12.25
2023-01-08T08:16:26.104Z,12.07
2023-01-08T08:18:55.341Z,13.15
2023-01-08T08:21:26.089Z,14.07
2023-01-08T08:23:55.169Z,13.80
2023-01-08T08:26:24.819Z,16.38
2023-01-08T08:28:53.973Z,15.25
2023-01-08T08:31:23.294Z,14.88
2023-01-08T08:33:52.405Z,15.90
2023-01-08T08:36:21.846Z,16.90
2023-01-08T08:38:52.668Z,16.40
2023-01-08T08:41:21.939Z,15.40
2023-01-08T08:43:52.553Z,15.07
2023-01-08T08:46:21.950Z,15.77
2023-01-08T08:48:51.166Z,14.52
2023-01-08T08:51:20.314Z,13.68
2023-01-08T08:53:49.576Z,14.65
2023-01-08T08:56:20.417Z,14.35
2023-01-08T08:58:50.822Z,13.50
2023-01-08T09:01:20.062Z,13.60
2023-01-08T09:03:49.926Z,13.50
2023-01-08T09:06:19.036Z,13.80
2023-01-08T09:08:48.246Z,14.20
2023-01-08T09:11:17.615Z,14.50
2023-01-08T09:13:48.252Z,14.07
2023-01-08T09:16:17.546Z,14.32
2023-01-08T09:18:47.314Z,13.63
2023-01-08T09:21:17.046Z,14.57
2023-01-08T09:23:46.557Z,13.98
2023-01-08T09:26:16.806Z,15.68
2023-01-08T09:28:50.728Z,14.85
2023-01-08T09:31:20.152Z,15.05
2023-01-08T09:33:52.393Z,13.88
2023-01-08T09:36:27.340Z,15.27
2023-01-08T09:38:56.877Z,14.45
2023-01-08T09:41:30.377Z,13.48
2023-01-08T09:44:04.121Z,15.68
2023-01-08T09:46:33.816Z,12.82
2023-01-08T09:49:09.213Z,11.90
2023-01-08T09:51:40.434Z,13.15
2023-01-08T09:54:16.303Z,11.82
2023-01-08T09:56:47.699Z,12.77
2023-01-08T09:59:20.273Z,13.23
2023-01-08T10:01:50.292Z,12.90
2023-01-08T10:04:21.822Z,14.25
2023-01-08T10:06:55.500Z,12.52
2023-01-08T10:09:29.399Z,13.48
2023-01-08T10:12:06.316Z,13.68
2023-01-08T10:14:48.061Z,18.67
2023-01-08T10:17:28.423Z,15.98
2023-01-08T10:20:00.740Z,14.23
2023-01-08T10:22:34.551Z,12.48
2023-01-08T10:25:14.234Z,14.50
2023-01-08T10:27:52.750Z,13.93
2023-01-08T10:30:41.516Z,12.55
2023-01-08T10:33:19.343Z,15.10
2023-01-08T10:35:57.255Z,10.63
2023-01-08T10:38:33.588Z,10.75
2023-01-08T10:41:07.052Z,10.13
2023-01-08T10:43:46.674Z,14.45
2023-01-08T10:46:25.335Z,12.57
2023-01-08T10:48:58.279Z,10.48
2023-01-08T10:51:31.849Z,14.18
2023-01-08T10:54:14.078Z,11.90
2023-01-08T10:56:45.967Z,12.30
2023-01-08T10:59:20.457Z,11.68
2023-01-08T11:01:53.540Z,12.98
2023-01-08T11:04:28.167Z,13.27
2023-01-08T11:07:00.031Z,14.00
2023-01-08T11:09:33.787Z,13.63
2023-01-08T11:12:03.226Z,12.13
2023-01-08T11:14:35.691Z,12.05
2023-01-08T11:17:13.068Z,14.45
2023-01-08T11:19:42.281Z,11.13
2023-01-08T11:22:21.635Z,10.55
2023-01-08T11:24:52.306Z,11.23
2023-01-08T11:27:31.890Z,12.30
2023-01-08T11:30:08.036Z,12.32
2023-01-08T11:32:49.425Z,11.82
2023-01-08T11:35:22.308Z,11.77
2023-01-08T11:37:55.534Z,19.13
2023-01-08T11:40:38.625Z,22.98
2023-01-08T11:43:26.144Z,22.90
2023-01-08T11:46:27.009Z,19.38
2023-01-08T11:49:29.117Z,15.85
2023-01-08T11:52:25.451Z,15.55
2023-01-08T11:55:25.384Z,15.93
2023-01-08T11:58:12.162Z,14.75
2023-01-08T12:00:58.707Z,13.60
2023-01-08T12:03:37.546Z,12.55
2023-01-08T12:06:21.130Z,15.10
2023-01-08T12:09:01.187Z,13.50
2023-01-08T12:11:32.767Z,13.68
2023-01-08T12:14:21.405Z,12.35
2023-01-08T12:17:12.943Z,11.25
2023-01-08T12:20:01.447Z,11.68
2023-01-08T12:22:47.608Z,12.18
2023-01-08T12:25:47.931Z,13.25
2023-01-08T12:28:49.679Z,12.65
2023-01-08T12:32:05.018Z,11.00
2023-01-08T12:34:48.872Z,11.68
2023-01-08T12:37:24.527Z,12.10
2023-01-08T12:40:07.171Z,10.50
2023-01-08T12:42:47.201Z,11.52
2023-01-08T12:45:28.393Z,12.60
2023-01-08T12:48:04.159Z,12.52
2023-01-08T12:50:45.488Z,10.38
2023-01-08T12:53:28.089Z,12.05
2023-01-08T12:56:06.681Z,12.05
2023-01-08T12:58:51.494Z,12.80
2023-01-08T13:01:38.117Z,12.40
2023-01-08T13:04:10.689Z,12.32
2023-01-08T13:06:54.004Z,11.15
2023-01-08T13:09:29.060Z,12.27
2023-01-08T13:12:01.968Z,12.25
2023-01-08T13:14:48.166Z,11.48
2023-01-08T13:17:21.415Z,12.77
2023-01-08T13:19:56.799Z,13.65
2023-01-08T13:22:29.228Z,15.95
2023-01-08T13:25:31.647Z,18.20
2023-01-08T13:28:18.988Z,25.55
2023-01-08T13:30:50.062Z,16.63
2023-01-08T13:33:40.447Z,13.52
2023-01-08T13:36:23.748Z,12.30
2023-01-08T13:39:23.500Z,15.20
2023-01-08T13:42:07.075Z,12.90
2023-01-08T13:44:42.625Z,14.07
2023-01-08T13:47:23.485Z,13.20
2023-01-08T13:49:56.467Z,13.60
2023-01-08T13:52:34.864Z,15.55
2023-01-08T13:55:13.214Z,15.95
2023-01-08T13:57:46.811Z,19.25
2023-01-08T14:00:25.530Z,18.08
2023-01-08T14:02:58.894Z,19.00
2023-01-08T14:05:30.678Z,19.73
2023-01-08T14:08:00.379Z,17.02
2023-01-08T14:10:33.405Z,15.98
2023-01-08T14:13:09.811Z,15.80
2023-01-08T14:15:41.065Z,16.03
2023-01-08T14:18:16.807Z,15.13
2023-01-08T14:20:50.172Z,13.93
2023-01-08T14:23:25.019Z,13.55
2023-01-08T14:25:55.287Z,13.95
2023-01-08T14:28:25.003Z,14.70
2023-01-08T14:30:59.650Z,14.68
2023-01-08T14:33:34.654Z,14.68
2023-01-08T14:36:08.549Z,15.48
2023-01-08T14:38:41.001Z,16.08
2023-01-08T14:41:14.724Z,17.00
2023-01-08T14:43:46.594Z,15.90
2023-01-08T14:46:23.588Z,16.98
2023-01-08T14:48:54.544Z,15.88
2023-01-08T14:51:27.745Z,17.33
2023-01-08T14:54:01.942Z,17.73
2023-01-08T14:56:38.853Z,16.30
2023-01-08T14:59:10.457Z,21.42
2023-01-08T15:01:42.019Z,23.38
2023-01-08T15:04:19.112Z,19.05
2023-01-08T15:06:50.829Z,19.98
2023-01-08T15:09:24.876Z,21.35
2023-01-08T15:11:58.583Z,20.10
2023-01-08T15:14:30.996Z,21.27
2023-01-08T15:17:12.804Z,22.83
2023-01-08T15:19:48.468Z,23.20
2023-01-08T15:22:23.896Z,28.35
2023-01-08T15:24:59.477Z,29.27
2023-01-08T15:27:31.449Z,26.85
2023-01-08T15:30:03.747Z,26.05
2023-01-08T15:32:37.263Z,28.58
2023-01-08T15:35:16.535Z,33.92
2023-01-08T15:37:46.321Z,32.60
2023-01-08T15:40:15.713Z,33.22
2023-01-08T15:43:02.890Z,28.67
2023-01-08T15:45:34.914Z,30.30
2023-01-08T15:48:09.081Z,35.40
2023-01-08T15:50:42.882Z,33.58
2023-01-08T15:53:18.705Z,35.60
2023-01-08T15:55:49.262Z,31.85
2023-01-08T15:58:19.915Z,31.45
2023-01-08T16:00:50.370Z,32.97
2023-01-08T16:03:22.869Z,27.77
2023-01-08T16:05:52.169Z,28.67
2023-01-08T16:08:21.902Z,26.10
2023-01-08T16:10:53.486Z,25.58
2023-01-08T16:13:22.977Z,27.17
2023-01-08T16:15:57.431Z,27.45
2023-01-08T16:18:29.784Z,23.52
2023-01-08T16:21:02.516Z,24.92
2023-01-08T16:23:31.988Z,23.02
2023-01-08T16:26:06.112Z,23.40
2023-01-08T16:28:35.240Z,24.48
2023-01-08T16:31:05.555Z,25.05
2023-01-08T16:33:36.221Z,27.10
2023-01-08T16:36:08.657Z,29.40
2023-01-08T16:38:38.467Z,28.20
2023-01-08T16:41:07.711Z,26.23
2023-01-08T16:43:43.178Z,24.58
2023-01-08T16:46:14.009Z,36.05
2023-01-08T16:48:44.953Z,30.85
2023-01-08T16:51:16.005Z,37.53
2023-01-08T16:53:45.352Z,34.17
2023-01-08T16:56:15.903Z,35.28
2023-01-08T16:58:45.582Z,32.92
2023-01-08T17:01:15.727Z,32.33
2023-01-08T17:03:47.496Z,35.15
2023-01-08T17:06:16.956Z,35.33
2023-01-08T17:08:46.577Z,31.50
2023-01-08T17:11:18.805Z,27.25
2023-01-08T17:13:49.308Z,25.65
2023-01-08T17:16:20.235Z,27.08
2023-01-08T17:18:50.920Z,24.02
2023-01-08T17:21:20.989Z,23.98
2023-01-08T17:23:50.516Z,22.20
2023-01-08T17:26:20.032Z,22.33
2023-01-08T17:28:49.364Z,22.45
2023-01-08T17:31:20.962Z,26.40
2023-01-08T17:33:52.748Z,26.23
2023-01-08T17:36:26.121Z,26.15
2023-01-08T17:38:56.395Z,27.75
2023-01-08T17:41:42.651Z,31.02
2023-01-08T17:44:14.289Z,30.90
2023-01-08T17:46:48.126Z,34.67
2023-01-08T17:49:20.098Z,31.48
2023-01-08T17:51:49.285Z,30.42
2023-01-08T17:54:19.848Z,24.27
2023-01-08T17:56:49.620Z,23.35
2023-01-08T17:59:20.728Z,20.90
2023-01-08T18:01:53.498Z,20.40
2023-01-08T18:04:25.823Z,18.20
2023-01-08T18:06:55.151Z,18.00
2023-01-08T18:09:24.459Z,18.00
2023-01-08T18:11:53.818Z,16.88
2023-01-08T18:14:23.016Z,16.95
2023-01-08T18:16:53.105Z,16.92
2023-01-08T18:19:22.547Z,17.67
2023-01-08T18:21:53.451Z,18.10
2023-01-08T18:24:22.745Z,17.02
2023-01-08T18:26:52.740Z,17.08
2023-01-08T18:29:23.562Z,17.60
2023-01-08T18:31:53.072Z,17.42
2023-01-08T18:34:23.570Z,18.42
2023-01-08T18:36:55.322Z,20.35
2023-01-08T18:39:26.606Z,19.73
2023-01-08T18:42:13.614Z,24.75
2023-01-08T18:44:44.851Z,20.63
2023-01-08T18:47:18.472Z,29.27
2023-01-08T18:49:50.205Z,26.05
2023-01-08T18:52:23.652Z,35.28
2023-01-08T18:54:53.299Z,29.75
2023-01-08T18:57:23.653Z,22.67
2023-01-08T18:59:53.388Z,23.23
2023-01-08T19:02:29.181Z,24.13
2023-01-08T19:05:03.603Z,25.58
2023-01-08T19:08:00.974Z,26.90
2023-01-08T19:10:33.761Z,23.03
2023-01-08T19:13:10.574Z,24.58
2023-01-08T19:15:39.964Z,27.65
2023-01-08T19:18:11.139Z,33.58
2023-01-08T19:20:43.332Z,31.17
2023-01-08T19:23:14.995Z,27.00
2023-01-08T19:25:44.577Z,23.15
2023-01-08T19:28:13.892Z,21.88
2023-01-08T19:30:43.426Z,21.13
2023-01-08T19:33:13.305Z,19.88
2023-01-08T19:35:42.934Z,19.60
2023-01-08T19:38:13.700Z,19.23
2023-01-08T19:40:42.983Z,18.90
2023-01-08T19:43:31.775Z,20.48
2023-01-08T19:46:06.481Z,19.58
2023-01-08T19:48:37.620Z,19.55
2023-01-08T19:51:10.713Z,21.60
2023-01-08T19:53:41.739Z,21.90
2023-01-08T19:56:16.397Z,25.67
2023-01-08T19:58:50.233Z,29.20
2023-01-08T20:01:25.894Z,28.55
2023-01-08T20:03:57.537Z,26.08
2023-01-08T20:06:29.605Z,24.88
2023-01-08T20:09:01.752Z,26.00
2023-01-08T20:11:31.733Z,24.08
2023-01-08T20:14:02.974Z,24.85
2023-01-08T20:16:33.354Z,25.95
2023-01-08T20:19:04.722Z,21.95
2023-01-08T20:21:35.236Z,21.52
2023-01-08T20:24:09.804Z,20.65
2023-01-08T20:26:39.727Z,23.38
2023-01-08T20:29:10.462Z,21.42
2023-01-08T20:31:41.322Z,22.67
2023-01-08T20:34:14.518Z,21.48
2023-01-08T20:36:46.523Z,21.33
2023-01-08T20:39:19.072Z,22.85
2023-01-08T20:42:00.807Z,24.48
2023-01-08T20:44:33.261Z,25.35
2023-01-08T20:47:04.143Z,24.27
2023-01-08T20:49:35.471Z,25.63
2023-01-08T20:52:06.375Z,25.55
2023-01-08T20:54:36.997Z,23.58
2023-01-08T20:57:06.341Z,23.27
2023-01-08T20:59:38.367Z,20.77
2023-01-08T21:02:08.102Z,17.23
2023-01-08T21:04:41.546Z,18.67
2023-01-08T21:07:11.069Z,19.10
2023-01-08T21:09:41.921Z,19.60
2023-01-08T21:12:13.512Z,22.73
2023-01-08T21:14:43.579Z,22.25
2023-01-08T21:17:13.293Z,22.10
2023-01-08T21:19:46.186Z,23.13
2023-01-08T21:22:15.818Z,25.23
2023-01-08T21:24:46.935Z,24.67
2023-01-08T21:27:16.665Z,23.75
2023-01-08T21:29:49.081Z,26.67
2023-01-08T21:32:20.346Z,25.00
2023-01-08T21:34:49.751Z,25.70
2023-01-08T21:37:21.627Z,25.00
2023-01-08T21:39:52.306Z,27.33
2023-01-08T21:42:38.959Z,23.20
2023-01-08T21:45:26.045Z,24.23
2023-01-08T21:47:59.919Z,23.20
2023-01-08T21:50:29.119Z,23.85
2023-01-08T21:53:15.985Z,23.50
2023-01-08T21:55:46.821Z,28.37
2023-01-08T21:58:16.507Z,29.65
2023-01-08T22:00:45.906Z,41.55
2023-01-08T22:03:15.249Z,69.00
2023-01-08T22:05:44.524Z,55.85
2023-01-08T22:08:18.485Z,33.42
2023-01-08T22:10:49.251Z,30.85
2023-01-08T22:13:18.593Z,41.42
2023-01-08T22:15:48.027Z,30.10
2023-01-08T22:18:17.237Z,27.52
2023-01-08T22:20:46.825Z,26.63
2023-01-08T22:23:16.148Z,24.83
2023-01-08T22:25:49.478Z,24.95
2023-01-08T22:28:19.089Z,23.25
2023-01-08T22:30:48.534Z,24.95
2023-01-08T22:33:17.993Z,26.98
2023-01-08T22:35:47.763Z,25.85
2023-01-08T22:38:17.319Z,26.85
2023-01-08T22:40:46.540Z,27.90
2023-01-08T22:43:17.264Z,28.48
2023-01-08T22:45:54.076Z,29.13
2023-01-08T22:48:24.074Z,26.95
2023-01-08T22:50:53.529Z,24.85
2023-01-08T22:53:24.444Z,20.90
2023-01-08T22:55:53.651Z,21.80
2023-01-08T22:58:28.775Z,23.92
2023-01-08T23:00:58.180Z,23.40
2023-01-08T23:03:29.280Z,23.55
2023-01-08T23:06:03.003Z,26.25
2023-01-08T23:08:34.231Z,25.42
2023-01-08T23:11:03.881Z,27.45
2023-01-08T23:13:35.874Z,26.15
2023-01-08T23:16:07.782Z,26.73
2023-01-08T23:18:39.885Z,26.15
2023-01-08T23:21:12.548Z,26.88
2023-01-08T23:23:41.781Z,28.23
2023-01-08T23:26:13.166Z,29.08
2023-01-08T23:28:44.000Z,25.45
2023-01-08T23:31:18.337Z,25.70
2023-01-08T23:33:49.810Z,23.33
2023-01-08T23:36:21.395Z,23.05
2023-01-08T23:38:53.603Z,25.35
2023-01-08T23:41:32.040Z,23.55
2023-01-08T23:44:06.812Z,23.77
2023-01-08T23:46:36.567Z,22.13
2023-01-08T23:49:07.327Z,22.80
2023-01-08T23:51:36.715Z,24.88
2023-01-08T23:54:06.104Z,23.67
2023-01-08T23:56:35.432Z,25.67
2023-01-08T23:59:06.387Z,24.30
